Time;durP1;ratioP1;P1;durP2;ratioP2;P2;SDS_P1;SDS_P2;PMS_P1;PMS_P2;Temp;Humidity;BMP_temperature;BMP_pressure;BME280_temperature;BME280_humidity;BME280_pressure;Samples;Min_cycle;Max_cycle;Signal;HPM_P1;HPM_P2
2023/08/26 00:00:08;;;;;;;11.77;8.30;;;17.50;99.90;;;;;;5037381;28;20081;-64
2023/08/26 00:02:34;;;;;;;13.32;8.48;;;17.50;99.90;;;;;;5023559;28;20049;-64
2023/08/26 00:05:00;;;;;;;10.65;8.05;;;17.40;99.90;;;;;;5041198;28;20040;-64
2023/08/26 00:07:26;;;;;;;11.48;7.93;;;17.40;99.90;;;;;;5042628;28;20094;-63
2023/08/26 00:09:52;;;;;;;12.52;8.07;;;17.40;99.90;;;;;;5011632;28;20080;-62
2023/08/26 00:12:18;;;;;;;11.60;7.85;;;17.30;99.90;;;;;;5034419;28;20033;-64
2023/08/26 00:14:43;;;;;;;14.85;7.50;;;17.30;99.90;;;;;;5046948;28;20561;-63
2023/08/26 00:17:09;;;;;;;11.23;8.20;;;17.30;99.90;;;;;;5037511;28;20036;-64
2023/08/26 00:19:34;;;;;;;11.73;8.25;;;17.20;99.90;;;;;;5020255;28;20116;-64
2023/08/26 00:22:00;;;;;;;13.35;8.50;;;17.20;99.90;;;;;;5021070;28;20037;-64
2023/08/26 00:24:26;;;;;;;12.73;8.32;;;17.10;99.90;;;;;;5034448;28;20048;-63
2023/08/26 00:26:52;;;;;;;13.10;9.00;;;17.10;99.90;;;;;;5041775;28;20038;-63
2023/08/26 00:29:17;;;;;;;14.70;8.75;;;17.10;99.90;;;;;;5034662;28;20040;-64
2023/08/26 00:31:43;;;;;;;11.90;8.15;;;17.10;99.90;;;;;;5035959;28;20037;-64
2023/08/26 00:34:08;;;;;;;12.25;8.15;;;17.10;99.90;;;;;;5041979;28;20116;-64
2023/08/26 00:36:34;;;;;;;10.00;7.50;;;17.10;99.90;;;;;;5033259;28;20056;-63
2023/08/26 00:39:01;;;;;;;11.38;8.15;;;17.10;99.90;;;;;;5040243;28;20032;-64
2023/08/26 00:41:26;;;;;;;11.48;8.18;;;17.10;99.90;;;;;;5047705;28;20053;-63
2023/08/26 00:43:52;;;;;;;18.27;9.05;;;17.10;99.90;;;;;;5044904;28;20022;-64
2023/08/26 00:46:18;;;;;;;10.63;8.18;;;17.10;99.90;;;;;;5053762;28;20331;-64
2023/08/26 00:48:44;;;;;;;12.65;7.57;;;17.10;99.90;;;;;;5042617;28;20079;-64
2023/08/26 00:51:10;;;;;;;11.63;8.25;;;17.10;99.90;;;;;;5035702;28;20033;-64
2023/08/26 00:53:36;;;;;;;10.15;7.35;;;17.10;99.90;;;;;;5019858;28;20046;-64
2023/08/26 00:56:02;;;;;;;9.75;7.57;;;17.10;99.90;;;;;;5034422;28;20510;-64
2023/08/26 00:58:29;;;;;;;11.40;8.13;;;17.10;99.90;;;;;;5046382;28;20480;-64
2023/08/26 01:00:55;;;;;;;11.35;7.68;;;17.20;99.90;;;;;;5043589;28;20049;-63
2023/08/26 01:03:21;;;;;;;10.50;7.32;;;17.20;99.90;;;;;;5048447;28;20029;-63
2023/08/26 01:05:47;;;;;;;9.35;6.90;;;17.10;99.90;;;;;;5038578;28;20036;-63
2023/08/26 01:08:13;;;;;;;11.20;7.53;;;17.10;99.90;;;;;;5014539;28;20103;-64
2023/08/26 01:10:48;;;;;;;10.27;7.43;;;17.10;99.90;;;;;;5044769;28;20048;-64
2023/08/26 01:13:15;;;;;;;8.75;6.90;;;17.10;99.90;;;;;;5020401;28;20522;-63
2023/08/26 01:15:46;;;;;;;8.68;7.18;;;17.10;99.90;;;;;;5041722;28;20137;-64
2023/08/26 01:18:13;;;;;;;9.75;7.40;;;17.10;99.90;;;;;;5037026;28;20056;-62
2023/08/26 01:20:41;;;;;;;11.18;6.47;;;17.10;99.90;;;;;;5046397;28;20041;-64
2023/08/26 01:23:10;;;;;;;12.18;6.80;;;17.10;99.90;;;;;;5014189;28;20038;-64
2023/08/26 01:25:37;;;;;;;9.60;6.90;;;17.00;99.90;;;;;;5039469;28;20037;-64
2023/08/26 01:28:02;;;;;;;11.05;6.85;;;17.00;99.90;;;;;;5039860;28;20509;-64
2023/08/26 01:30:28;;;;;;;8.35;5.97;;;17.00;99.90;;;;;;5042999;22;20041;-61
2023/08/26 01:33:04;;;;;;;13.18;6.70;;;17.00;99.90;;;;;;5009771;28;20050;-62
2023/08/26 01:35:37;;;;;;;11.23;6.57;;;17.00;99.90;;;;;;5014497;28;20037;-64
2023/08/26 01:38:05;;;;;;;8.68;5.88;;;17.00;99.90;;;;;;4992449;28;20049;-61
2023/08/26 01:40:33;;;;;;;11.60;6.78;;;17.00;99.90;;;;;;4976389;28;20038;-61
2023/08/26 01:43:00;;;;;;;9.43;6.60;;;17.00;99.90;;;;;;5018086;28;20119;-61
2023/08/26 01:45:26;;;;;;;9.18;6.07;;;17.00;99.90;;;;;;4988561;28;20042;-61
2023/08/26 01:47:51;;;;;;;10.32;5.93;;;17.00;99.90;;;;;;4991057;28;20029;-61
2023/08/26 01:50:17;;;;;;;12.82;6.13;;;17.00;99.90;;;;;;5004679;28;20033;-61
2023/08/26 01:52:42;;;;;;;9.43;5.65;;;17.00;99.90;;;;;;5012194;28;20092;-64
2023/08/26 01:55:08;;;;;;;11.68;5.55;;;17.00;99.90;;;;;;5003900;28;20540;-62
2023/08/26 01:57:34;;;;;;;8.40;6.28;;;17.00;99.90;;;;;;5002646;28;20042;-61
2023/08/26 01:59:59;;;;;;;9.45;5.55;;;17.00;99.90;;;;;;4996442;28;20046;-61
2023/08/26 02:02:25;;;;;;;11.13;5.95;;;17.00;99.90;;;;;;5012175;28;20511;-61
2023/08/26 02:04:51;;;;;;;10.82;6.03;;;17.00;99.90;;;;;;4987253;28;20437;-61
2023/08/26 02:07:16;;;;;;;9.98;5.97;;;16.90;99.90;;;;;;5009463;28;20191;-61
2023/08/26 02:09:42;;;;;;;8.88;6.05;;;17.00;99.90;;;;;;5011009;28;20128;-61
2023/08/26 02:12:07;;;;;;;8.23;5.40;;;17.00;99.90;;;;;;5019053;28;20040;-62
2023/08/26 02:14:33;;;;;;;9.10;5.95;;;16.90;99.90;;;;;;5007151;28;20058;-61
2023/08/26 02:16:59;;;;;;;10.98;6.30;;;16.90;99.90;;;;;;4984500;28;20042;-61
2023/08/26 02:19:24;;;;;;;11.30;6.72;;;16.90;99.90;;;;;;4992042;28;20076;-61
2023/08/26 02:21:52;;;;;;;12.93;6.60;;;16.90;99.90;;;;;;5007274;28;20041;-61
2023/08/26 02:24:18;;;;;;;11.25;5.50;;;16.80;99.90;;;;;;5006667;28;20037;-61
2023/08/26 02:26:43;;;;;;;11.23;5.32;;;16.80;99.90;;;;;;5012192;28;20068;-63
2023/08/26 02:29:09;;;;;;;10.90;5.68;;;16.80;99.90;;;;;;4993623;28;20087;-61
2023/08/26 02:31:34;;;;;;;9.80;5.95;;;17.00;99.90;;;;;;5016298;28;20125;-61
2023/08/26 02:34:00;;;;;;;8.90;5.65;;;16.80;99.90;;;;;;5005958;28;20446;-61
2023/08/26 02:36:25;;;;;;;9.45;5.45;;;16.80;99.90;;;;;;5006661;28;20034;-63
2023/08/26 02:38:51;;;;;;;10.38;5.82;;;16.80;99.90;;;;;;5010320;28;20064;-61
2023/08/26 02:41:17;;;;;;;10.90;5.60;;;16.70;99.90;;;;;;4999521;28;20404;-60
2023/08/26 02:43:42;;;;;;;9.02;5.78;;;16.70;99.90;;;;;;5009643;28;20377;-61
2023/08/26 02:46:08;;;;;;;11.57;6.13;;;16.60;99.90;;;;;;4983936;28;20042;-61
2023/08/26 02:48:33;;;;;;;10.10;6.10;;;16.60;99.90;;;;;;4996301;28;20045;-61
2023/08/26 02:51:01;;;;;;;10.48;6.22;;;16.50;99.90;;;;;;4993714;28;20076;-62
2023/08/26 02:53:28;;;;;;;10.25;6.10;;;16.50;99.90;;;;;;4981602;28;20060;-62
2023/08/26 02:55:55;;;;;;;7.55;5.88;;;16.50;99.90;;;;;;5000175;28;20041;-62
2023/08/26 02:58:21;;;;;;;11.23;5.88;;;16.50;99.90;;;;;;5000125;28;20038;-62
2023/08/26 03:00:47;;;;;;;9.10;6.03;;;16.40;99.90;;;;;;5002069;28;20034;-62
2023/08/26 03:03:13;;;;;;;8.57;5.80;;;16.40;99.90;;;;;;4992532;28;20292;-62
2023/08/26 03:05:39;;;;;;;10.52;6.45;;;16.40;99.90;;;;;;5010346;28;20407;-61
2023/08/26 03:08:05;;;;;;;12.05;6.50;;;16.40;99.90;;;;;;4999269;28;20030;-62
2023/08/26 03:10:31;;;;;;;9.65;6.45;;;16.30;99.90;;;;;;5010968;28;20484;-62
2023/08/26 03:12:57;;;;;;;10.55;6.05;;;16.30;99.90;;;;;;5011093;28;20080;-61
2023/08/26 03:15:27;;;;;;;10.30;6.30;;;16.30;99.90;;;;;;5006407;28;20053;-62
2023/08/26 03:17:53;;;;;;;12.90;6.57;;;16.30;99.90;;;;;;5007657;28;20499;-62
2023/08/26 03:20:19;;;;;;;10.85;6.45;;;16.30;99.90;;;;;;5006349;28;20064;-62
2023/08/26 03:22:45;;;;;;;10.68;6.47;;;16.30;99.90;;;;;;5004020;28;20092;-61
2023/08/26 03:25:11;;;;;;;10.65;6.82;;;16.30;99.90;;;;;;4984909;28;20073;-62
2023/08/26 03:27:37;;;;;;;8.88;6.28;;;16.30;99.90;;;;;;4985829;28;20514;-64
2023/08/26 03:30:03;;;;;;;11.38;6.47;;;16.30;99.90;;;;;;4975946;28;20117;-62
2023/08/26 03:32:29;;;;;;;10.43;6.57;;;16.30;99.90;;;;;;4995084;28;20050;-61
2023/08/26 03:34:54;;;;;;;11.50;7.22;;;16.20;99.90;;;;;;4999918;28;20037;-61
2023/08/26 03:37:20;;;;;;;13.15;7.80;;;16.20;99.90;;;;;;5019703;28;20522;-62
2023/08/26 03:39:46;;;;;;;10.85;6.85;;;16.20;99.90;;;;;;5016503;28;20080;-62
2023/08/26 03:42:11;;;;;;;11.55;7.18;;;16.20;99.90;;;;;;4992721;28;20045;-61
2023/08/26 03:44:37;;;;;;;12.93;7.80;;;16.20;99.90;;;;;;4998564;28;20041;-62
2023/08/26 03:47:03;;;;;;;15.85;7.70;;;16.20;99.90;;;;;;4984120;28;20500;-61
2023/08/26 03:49:30;;;;;;;10.73;7.00;;;16.20;99.90;;;;;;5002658;28;20400;-62
2023/08/26 03:51:56;;;;;;;11.65;6.75;;;16.20;99.90;;;;;;5006057;28;20483;-63
2023/08/26 03:54:21;;;;;;;16.40;8.48;;;16.30;99.90;;;;;;4989777;28;20052;-61
2023/08/26 03:56:47;;;;;;;12.05;8.20;;;16.20;99.90;;;;;;4982933;28;20121;-61
2023/08/26 03:59:13;;;;;;;16.60;8.20;;;16.20;99.90;;;;;;5007537;28;20038;-61
2023/08/26 04:01:39;;;;;;;11.55;7.78;;;16.20;99.90;;;;;;5003509;28;20395;-62
2023/08/26 04:04:05;;;;;;;11.00;7.85;;;16.20;99.90;;;;;;5009625;28;20042;-62
2023/08/26 04:06:31;;;;;;;11.90;7.68;;;16.20;99.90;;;;;;5010511;28;20114;-62
2023/08/26 04:08:57;;;;;;;12.77;8.13;;;16.20;99.90;;;;;;5000094;28;20112;-62
2023/08/26 04:11:23;;;;;;;13.48;8.02;;;16.20;99.90;;;;;;5009000;28;20069;-61
2023/08/26 04:13:48;;;;;;;12.43;8.27;;;16.20;99.90;;;;;;5001967;28;20046;-62
2023/08/26 04:16:15;;;;;;;12.45;8.10;;;16.20;99.90;;;;;;5006864;28;20048;-61
2023/08/26 04:18:42;;;;;;;12.90;8.43;;;16.20;99.90;;;;;;5011301;28;20484;-61
2023/08/26 04:21:09;;;;;;;11.10;7.68;;;16.20;99.90;;;;;;4991317;28;20742;-61
2023/08/26 04:23:35;;;;;;;13.38;7.50;;;16.10;99.90;;;;;;4986807;28;20428;-63
2023/08/26 04:26:02;;;;;;;11.18;8.02;;;16.20;99.90;;;;;;5001865;28;20033;-61
2023/08/26 04:28:29;;;;;;;13.40;8.02;;;16.10;99.90;;;;;;4992380;28;20039;-62
2023/08/26 04:30:56;;;;;;;11.48;8.15;;;16.10;99.90;;;;;;4998388;28;20038;-62
2023/08/26 04:33:22;;;;;;;12.30;7.55;;;16.10;99.90;;;;;;5009078;28;20430;-62
2023/08/26 04:35:47;;;;;;;12.82;8.32;;;16.10;99.90;;;;;;4984050;28;20046;-61
2023/08/26 04:38:13;;;;;;;14.50;8.27;;;16.10;99.90;;;;;;5005729;28;20046;-63
2023/08/26 04:40:41;;;;;;;11.10;7.70;;;16.10;99.90;;;;;;5004843;28;20046;-62
2023/08/26 04:43:13;;;;;;;12.52;7.43;;;16.10;99.90;;;;;;5008598;28;20045;-61
2023/08/26 04:45:40;;;;;;;14.50;8.45;;;16.10;99.90;;;;;;5002894;28;20077;-61
2023/08/26 04:48:06;;;;;;;12.38;7.53;;;16.10;99.90;;;;;;4992456;28;20404;-62
2023/08/26 04:50:32;;;;;;;10.45;7.38;;;16.10;99.90;;;;;;4985920;28;20056;-61
2023/08/26 04:52:58;;;;;;;13.07;8.20;;;16.10;99.90;;;;;;5005327;28;20116;-62
2023/08/26 04:55:23;;;;;;;12.85;7.25;;;16.20;99.90;;;;;;5006526;28;20084;-61
2023/08/26 04:57:49;;;;;;;12.70;8.07;;;16.10;99.90;;;;;;4985192;28;20050;-61
2023/08/26 05:00:16;;;;;;;15.60;8.13;;;16.20;99.90;;;;;;5010332;28;20393;-61
2023/08/26 05:02:43;;;;;;;10.80;8.18;;;16.20;99.90;;;;;;5014739;28;20480;-62
2023/08/26 05:05:09;;;;;;;12.25;7.68;;;16.20;99.90;;;;;;5009783;28;20374;-61
2023/08/26 05:07:35;;;;;;;10.43;7.55;;;16.10;99.90;;;;;;5011252;28;20084;-61
2023/08/26 05:10:03;;;;;;;13.20;7.80;;;16.20;99.90;;;;;;5010628;28;20129;-61
2023/08/26 05:12:29;;;;;;;12.57;7.32;;;16.20;99.90;;;;;;5015538;28;20404;-61
2023/08/26 05:14:55;;;;;;;13.75;8.25;;;16.20;99.90;;;;;;4996201;28;20046;-61
2023/08/26 05:17:21;;;;;;;13.57;7.82;;;16.20;99.90;;;;;;4993336;28;20049;-60
2023/08/26 05:19:46;;;;;;;11.85;8.18;;;16.10;99.90;;;;;;4995905;28;20035;-63
2023/08/26 05:22:12;;;;;;;14.00;8.43;;;16.10;99.90;;;;;;5008595;28;20038;-61
2023/08/26 05:24:38;;;;;;;15.15;8.15;;;16.10;99.90;;;;;;5007285;28;20273;-61
2023/08/26 05:27:04;;;;;;;14.68;9.60;;;16.10;99.90;;;;;;5004206;28;20403;-61
2023/08/26 05:29:30;;;;;;;14.52;8.60;;;16.00;99.90;;;;;;5008123;28;20041;-61
2023/08/26 05:31:55;;;;;;;18.60;9.85;;;16.10;99.90;;;;;;4989648;28;20423;-61
2023/08/26 05:34:21;;;;;;;15.05;9.35;;;16.00;99.90;;;;;;5000070;28;20462;-62
2023/08/26 05:36:47;;;;;;;17.42;9.65;;;16.10;99.90;;;;;;5005038;28;20038;-64
2023/08/26 05:39:12;;;;;;;16.25;9.00;;;16.10;99.90;;;;;;5010829;28;20037;-60
2023/08/26 05:41:38;;;;;;;15.57;9.15;;;16.10;99.90;;;;;;4995221;28;20121;-60
2023/08/26 05:44:04;;;;;;;19.23;9.38;;;16.10;99.90;;;;;;5012504;28;20042;-61
2023/08/26 05:46:30;;;;;;;17.27;9.77;;;16.10;99.90;;;;;;5009423;28;20046;-61
2023/08/26 05:48:55;;;;;;;13.52;9.65;;;16.10;99.90;;;;;;5003525;28;20030;-61
2023/08/26 05:51:21;;;;;;;14.10;9.40;;;16.20;99.90;;;;;;4990516;28;20046;-64
2023/08/26 05:53:47;;;;;;;16.88;10.35;;;16.10;99.90;;;;;;5006802;28;20041;-61
2023/08/26 05:56:13;;;;;;;14.05;9.80;;;16.10;99.90;;;;;;4989174;28;20042;-61
2023/08/26 05:58:38;;;;;;;18.63;10.50;;;16.10;99.90;;;;;;5005312;28;20042;-61
2023/08/26 06:01:04;;;;;;;16.42;11.20;;;16.20;99.90;;;;;;5015370;28;20464;-62
2023/08/26 06:03:29;;;;;;;19.92;10.93;;;16.20;99.90;;;;;;5043988;23;20106;-62
2023/08/26 06:05:55;;;;;;;20.13;11.00;;;16.10;99.90;;;;;;5022691;28;20038;-62
2023/08/26 06:08:21;;;;;;;20.88;11.43;;;16.10;99.90;;;;;;5011137;28;20034;-62
2023/08/26 06:10:46;;;;;;;17.10;11.45;;;16.20;99.90;;;;;;5035327;28;20060;-62
2023/08/26 06:13:12;;;;;;;19.42;11.50;;;16.20;99.90;;;;;;5024443;28;20467;-62
2023/08/26 06:15:38;;;;;;;18.83;12.68;;;16.20;99.90;;;;;;5026175;28;20042;-61
2023/08/26 06:18:04;;;;;;;18.52;12.73;;;16.20;99.90;;;;;;5032725;28;20029;-62
2023/08/26 06:20:29;;;;;;;18.70;13.25;;;16.20;99.90;;;;;;5019735;28;20048;-62
2023/08/26 06:22:55;;;;;;;20.25;12.48;;;16.20;99.90;;;;;;5035426;28;20033;-62
2023/08/26 06:25:21;;;;;;;18.15;11.38;;;16.10;99.90;;;;;;5022661;28;20045;-62
2023/08/26 06:27:46;;;;;;;20.77;12.18;;;16.10;99.90;;;;;;5033478;28;20037;-62
2023/08/26 06:30:12;;;;;;;19.10;11.00;;;16.10;99.90;;;;;;5026531;28;20583;-63
2023/08/26 06:32:38;;;;;;;15.10;10.98;;;16.10;99.90;;;;;;5030561;28;20116;-63
2023/08/26 06:35:04;;;;;;;17.77;9.88;;;16.10;99.90;;;;;;5031094;28;20033;-63
2023/08/26 06:37:30;;;;;;;20.17;10.55;;;16.00;99.90;;;;;;5013552;28;20119;-63
2023/08/26 06:39:56;;;;;;;17.92;10.65;;;16.00;99.90;;;;;;5031971;28;20079;-63
2023/08/26 06:42:21;;;;;;;18.45;10.88;;;16.00;99.90;;;;;;5019514;28;20033;-63
2023/08/26 06:44:47;;;;;;;20.58;10.77;;;16.00;99.90;;;;;;5029941;28;20060;-62
2023/08/26 06:47:13;;;;;;;21.70;12.23;;;16.00;99.90;;;;;;5009749;28;20041;-62
2023/08/26 06:49:38;;;;;;;18.85;12.85;;;16.00;99.90;;;;;;5014234;28;20037;-63
2023/08/26 06:52:04;;;;;;;16.95;12.73;;;16.00;99.90;;;;;;5019824;28;20078;-63
2023/08/26 06:54:32;;;;;;;18.67;12.70;;;16.10;99.90;;;;;;5022212;28;20037;-62
2023/08/26 06:56:58;;;;;;;21.70;13.30;;;16.20;99.90;;;;;;5034471;28;20479;-63
2023/08/26 06:59:23;;;;;;;22.63;13.23;;;16.20;99.90;;;;;;5022508;28;20048;-62
2023/08/26 07:01:49;;;;;;;18.95;12.20;;;16.20;99.90;;;;;;5021581;28;20056;-63
2023/08/26 07:04:15;;;;;;;20.65;13.10;;;16.30;99.90;;;;;;5035583;28;20108;-63
2023/08/26 07:06:41;;;;;;;18.33;13.27;;;16.40;99.90;;;;;;5037942;28;20055;-62
2023/08/26 07:09:10;;;;;;;19.42;12.60;;;16.40;99.90;;;;;;5042370;28;20029;-63
2023/08/26 07:11:36;;;;;;;20.75;12.32;;;16.40;99.90;;;;;;5028868;28;20555;-63
2023/08/26 07:14:01;;;;;;;19.73;13.10;;;16.40;99.90;;;;;;5036474;28;20131;-62
2023/08/26 07:16:29;;;;;;;18.02;12.50;;;16.40;99.90;;;;;;5014098;28;20083;-63
2023/08/26 07:18:54;;;;;;;21.15;12.95;;;16.40;99.90;;;;;;5037977;28;20059;-62
2023/08/26 07:21:20;;;;;;;18.67;12.40;;;16.40;99.90;;;;;;5043294;28;20112;-62
2023/08/26 07:23:46;;;;;;;22.33;12.40;;;16.40;99.90;;;;;;5036799;28;20403;-61
2023/08/26 07:26:11;;;;;;;23.15;13.13;;;16.40;99.90;;;;;;5010968;28;20076;-63
2023/08/26 07:28:37;;;;;;;18.90;12.48;;;16.40;99.90;;;;;;5029976;28;20052;-63
2023/08/26 07:31:04;;;;;;;17.17;12.45;;;16.40;99.90;;;;;;5032931;22;20045;-61
2023/08/26 07:33:31;;;;;;;16.88;12.10;;;16.40;99.90;;;;;;4994443;28;20073;-61
2023/08/26 07:36:09;;;;;;;18.15;12.90;;;16.40;99.90;;;;;;4989668;28;20436;-61
2023/08/26 07:38:35;;;;;;;17.75;12.50;;;16.40;99.90;;;;;;4985446;28;20038;-63
2023/08/26 07:41:00;;;;;;;15.88;13.05;;;16.50;99.90;;;;;;4998505;28;20058;-63
2023/08/26 07:43:26;;;;;;;26.85;13.23;;;16.50;99.90;;;;;;5002877;28;20484;-60
2023/08/26 07:45:52;;;;;;;19.73;12.55;;;16.50;99.90;;;;;;4995759;28;20129;-60
2023/08/26 07:48:17;;;;;;;19.90;12.93;;;16.50;99.90;;;;;;4996928;28;20048;-61
2023/08/26 07:50:43;;;;;;;17.40;13.30;;;16.60;99.90;;;;;;5004448;28;21287;-62
2023/08/26 07:53:09;;;;;;;17.20;12.82;;;16.60;99.90;;;;;;4992407;28;20501;-63
2023/08/26 07:55:35;;;;;;;19.70;12.80;;;16.70;99.90;;;;;;4986279;28;20037;-62
2023/08/26 07:58:00;;;;;;;18.00;12.90;;;16.70;99.90;;;;;;4984501;28;20052;-60
2023/08/26 08:00:26;;;;;;;17.77;12.70;;;16.70;99.90;;;;;;5002521;28;20038;-61
2023/08/26 08:02:54;;;;;;;25.50;12.77;;;16.80;99.90;;;;;;5004226;28;20484;-61
2023/08/26 08:05:20;;;;;;;19.10;12.80;;;16.90;99.90;;;;;;5003970;28;20042;-62
2023/08/26 08:07:46;;;;;;;19.83;12.07;;;17.00;99.90;;;;;;5001529;28;20038;-62
2023/08/26 08:10:12;;;;;;;17.27;11.90;;;17.10;99.90;;;;;;4970297;28;20480;-62
2023/08/26 08:12:37;;;;;;;19.23;11.82;;;17.10;99.90;;;;;;4997344;28;20045;-63
2023/08/26 08:15:03;;;;;;;16.15;11.30;;;17.10;99.90;;;;;;4997414;28;20042;-62
2023/08/26 08:17:30;;;;;;;14.65;11.13;;;17.10;99.90;;;;;;4995688;28;20038;-61
2023/08/26 08:19:56;;;;;;;18.27;11.48;;;17.20;99.90;;;;;;5002607;28;20042;-62
2023/08/26 08:22:43;;;;;;;15.68;10.98;;;17.20;99.90;;;;;;5002576;28;20384;-62
2023/08/26 08:25:09;;;;;;;19.48;10.70;;;17.30;99.90;;;;;;4993320;28;20037;-61
2023/08/26 08:27:37;;;;;;;15.02;9.68;;;17.30;99.90;;;;;;4998924;28;20038;-61
2023/08/26 08:30:04;;;;;;;14.38;9.70;;;17.40;99.90;;;;;;4996603;28;20035;-62
2023/08/26 08:32:30;;;;;;;16.88;9.95;;;17.40;99.90;;;;;;4985593;28;20057;-60
2023/08/26 08:34:55;;;;;;;12.10;9.15;;;17.50;99.90;;;;;;4985544;28;20041;-61
2023/08/26 08:37:21;;;;;;;12.00;8.60;;;17.70;99.90;;;;;;5002892;28;20068;-61
2023/08/26 08:39:47;;;;;;;17.25;9.57;;;17.70;99.90;;;;;;4973842;28;20051;-61
2023/08/26 08:42:16;;;;;;;13.43;8.70;;;17.80;99.90;;;;;;4992856;28;20081;-62
2023/08/26 08:44:44;;;;;;;13.68;8.95;;;18.00;99.90;;;;;;5001501;28;20042;-61
2023/08/26 08:47:10;;;;;;;14.20;8.70;;;18.10;99.90;;;;;;4989931;28;20520;-62
2023/08/26 08:49:36;;;;;;;17.15;8.60;;;18.10;99.90;;;;;;4989292;28;20042;-61
2023/08/26 08:52:03;;;;;;;13.25;8.68;;;18.10;99.90;;;;;;4998585;28;20567;-63
2023/08/26 08:54:33;;;;;;;13.57;8.02;;;18.20;99.90;;;;;;4990647;28;20042;-64
2023/08/26 08:56:59;;;;;;;13.10;7.80;;;18.30;99.90;;;;;;4992397;28;20030;-65
2023/08/26 08:59:26;;;;;;;14.02;7.70;;;18.40;99.90;;;;;;4995069;28;20038;-63
2023/08/26 09:01:58;;;;;;;13.35;7.45;;;18.60;99.90;;;;;;5005972;28;20124;-62
2023/08/26 09:04:24;;;;;;;10.95;6.97;;;18.70;99.90;;;;;;5006260;28;20109;-63
2023/08/26 09:06:51;;;;;;;13.75;6.90;;;18.80;99.90;;;;;;5001088;28;20075;-62
2023/08/26 09:09:16;;;;;;;10.38;6.43;;;18.90;99.90;;;;;;4973851;28;20042;-62
2023/08/26 09:11:42;;;;;;;9.63;5.50;;;19.00;99.90;;;;;;4999458;28;20038;-63
2023/08/26 09:14:08;;;;;;;12.52;5.30;;;19.30;99.90;;;;;;4975988;28;20100;-62
2023/08/26 09:16:36;;;;;;;11.00;5.57;;;19.50;99.90;;;;;;4996819;28;20041;-62
2023/08/26 09:19:04;;;;;;;10.85;4.50;;;19.60;99.90;;;;;;5001452;28;20072;-63
2023/08/26 09:21:30;;;;;;;9.52;3.60;;;19.70;99.90;;;;;;4994973;28;20054;-62
2023/08/26 09:23:56;;;;;;;8.93;3.30;;;19.70;99.90;;;;;;4997084;28;20038;-62
2023/08/26 09:26:26;;;;;;;6.95;3.28;;;19.70;99.90;;;;;;4990214;28;20037;-62
2023/08/26 09:28:52;;;;;;;6.05;3.20;;;19.90;99.90;;;;;;5001466;28;20046;-62
2023/08/26 09:31:19;;;;;;;9.95;3.15;;;20.10;99.90;;;;;;4995011;28;20140;-65
2023/08/26 09:33:50;;;;;;;9.02;3.15;;;20.20;99.90;;;;;;5007428;28;20073;-62
2023/08/26 09:36:15;;;;;;;7.22;3.00;;;20.40;99.90;;;;;;4993318;28;20549;-62
2023/08/26 09:38:47;;;;;;;6.03;2.50;;;20.50;99.90;;;;;;5008391;28;20073;-62
2023/08/26 09:41:19;;;;;;;;;;;20.70;99.90;;;;;;4985302;28;20049;-62
2023/08/26 09:43:45;;;;;;;;;;;20.80;99.90;;;;;;4996913;28;19996;-63
2023/08/26 09:46:19;;;;;;;7.75;3.03;;;20.90;99.90;;;;;;5008231;28;19922;-62
2023/08/26 09:48:46;;;;;;;4.55;2.35;;;21.00;99.90;;;;;;4975628;28;20463;-62
2023/08/26 09:51:27;;;;;;;6.85;2.20;;;21.20;99.90;;;;;;4986179;28;20046;-62
2023/08/26 09:53:54;;;;;;;6.97;2.53;;;21.30;99.90;;;;;;5003055;28;20042;-64
2023/08/26 09:56:24;;;;;;;8.15;2.33;;;21.30;99.90;;;;;;5010122;28;20045;-62
2023/08/26 09:58:51;;;;;;;8.27;2.30;;;21.40;99.90;;;;;;4989002;28;20045;-63
2023/08/26 10:01:21;;;;;;;6.78;2.20;;;21.50;99.90;;;;;;5001372;28;20048;-63
2023/08/26 10:04:03;;;;;;;8.88;2.70;;;21.50;99.90;;;;;;4979310;28;20038;-62
2023/08/26 10:06:34;;;;;;;7.35;2.60;;;21.60;99.90;;;;;;4985714;28;20519;-62
2023/08/26 10:09:17;;;;;;;6.93;2.70;;;21.30;99.90;;;;;;5003071;28;20042;-62
2023/08/26 10:11:46;;;;;;;8.32;2.50;;;21.10;99.90;;;;;;4986120;28;20081;-62
2023/08/26 10:14:14;;;;;;;7.95;2.55;;;21.10;99.90;;;;;;5009385;28;20408;-62
2023/08/26 10:16:41;;;;;;;9.63;2.70;;;21.30;99.90;;;;;;4981432;28;20035;-62
2023/08/26 10:19:08;;;;;;;6.22;2.00;;;21.20;99.90;;;;;;5002399;28;20045;-65
2023/08/26 10:21:35;;;;;;;6.18;2.25;;;21.30;99.90;;;;;;4975373;28;20081;-63
2023/08/26 10:24:02;;;;;;;7.18;2.10;;;21.30;99.90;;;;;;5004390;28;20077;-62
2023/08/26 10:26:28;;;;;;;6.40;2.28;;;21.20;99.90;;;;;;5002580;28;20046;-62
2023/08/26 10:28:55;;;;;;;4.10;1.85;;;21.20;99.90;;;;;;4992735;28;20030;-62
2023/08/26 10:31:30;;;;;;;4.45;1.80;;;21.30;99.90;;;;;;5000294;28;20046;-62
2023/08/26 10:34:09;;;;;;;4.65;1.98;;;21.50;99.90;;;;;;4985683;28;20046;-63
2023/08/26 10:36:36;;;;;;;5.18;2.40;;;21.80;99.90;;;;;;4983988;28;20054;-62
2023/08/26 10:39:02;;;;;;;5.85;1.95;;;21.90;99.90;;;;;;5007366;28;20489;-65
2023/08/26 10:41:29;;;;;;;6.07;1.65;;;21.90;99.90;;;;;;5001476;28;20089;-62
2023/08/26 10:43:58;;;;;;;5.60;2.08;;;21.90;99.90;;;;;;4980561;28;20499;-62
2023/08/26 10:46:33;;;;;;;6.05;1.80;;;22.00;99.90;;;;;;5003603;28;20088;-62
2023/08/26 10:48:59;;;;;;;4.43;1.60;;;22.00;99.90;;;;;;4985125;28;20045;-62
2023/08/26 10:51:26;;;;;;;3.22;1.50;;;22.20;99.90;;;;;;5008149;28;20179;-62
2023/08/26 10:53:52;;;;;;;;;;;22.40;99.90;;;;;;4995870;28;20042;-64
2023/08/26 10:56:19;;;;;;;3.33;1.40;;;22.50;99.90;;;;;;5001113;28;20016;-62
2023/08/26 10:58:46;;;;;;;3.45;1.45;;;22.60;99.80;;;;;;5005985;28;20038;-62
2023/08/26 11:01:13;;;;;;;3.30;1.48;;;22.70;99.70;;;;;;5000072;28;20276;-62
2023/08/26 11:03:39;;;;;;;3.08;1.42;;;22.80;99.90;;;;;;4980076;28;20128;-62
2023/08/26 11:06:06;;;;;;;;;;;22.80;99.90;;;;;;5001354;28;20564;-62
2023/08/26 11:08:32;;;;;;;3.50;1.73;;;22.80;99.90;;;;;;4997183;28;19924;-62
2023/08/26 11:10:58;;;;;;;4.28;1.42;;;23.00;99.90;;;;;;4981916;28;20049;-61
2023/08/26 11:13:24;;;;;;;4.43;1.38;;;23.00;99.90;;;;;;5008524;28;20054;-62
2023/08/26 11:15:51;;;;;;;5.95;1.85;;;23.00;99.50;;;;;;5006161;28;20037;-66
2023/08/26 11:18:17;;;;;;;5.45;1.58;;;23.00;99.60;;;;;;4995898;28;20048;-66
2023/08/26 11:20:43;;;;;;;;;;;23.10;99.70;;;;;;4986164;28;20038;-62
2023/08/26 11:23:09;;;;;;;4.85;1.77;;;23.20;99.90;;;;;;4988650;28;19918;-63
2023/08/26 11:25:35;;;;;;;3.20;1.50;;;23.30;99.90;;;;;;4990002;28;20515;-65
2023/08/26 11:28:03;;;;;;;3.97;1.90;;;23.20;98.20;;;;;;4966144;28;20035;-64
2023/08/26 11:30:29;;;;;;;1.70;1.42;;;23.00;98.70;;;;;;4993083;28;20436;-63
2023/08/26 11:32:54;;;;;;;3.95;1.60;;;22.70;98.10;;;;;;4992696;28;20045;-64
2023/08/26 11:35:23;;;;;;;4.65;1.80;;;22.30;98.70;;;;;;4983973;28;20042;-64
2023/08/26 11:37:49;;;;;;;4.80;1.80;;;21.90;99.50;;;;;;5001344;28;20037;-64
2023/08/26 11:40:16;;;;;;;3.38;1.83;;;21.70;99.90;;;;;;4982612;28;20074;-63
2023/08/26 11:42:44;;;;;;;3.83;1.95;;;21.40;99.90;;;;;;4988734;28;20073;-64
2023/08/26 11:45:11;;;;;;;6.38;2.10;;;21.40;99.90;;;;;;4997298;28;20030;-64
2023/08/26 11:47:40;;;;;;;3.25;1.80;;;21.50;99.90;;;;;;4985128;28;20038;-64
2023/08/26 11:50:08;;;;;;;3.65;2.08;;;21.80;99.90;;;;;;4998471;28;20038;-64
2023/08/26 11:52:37;;;;;;;3.63;1.70;;;22.00;99.90;;;;;;4999160;28;20403;-64
2023/08/26 11:55:04;;;;;;;2.92;1.70;;;22.10;99.90;;;;;;4986726;28;20034;-64
2023/08/26 11:57:35;;;;;;;2.65;1.60;;;22.00;99.70;;;;;;4990368;28;20068;-64
2023/08/26 12:00:13;;;;;;;3.92;1.90;;;21.90;99.90;;;;;;4996686;28;20129;-63
2023/08/26 12:02:44;;;;;;;3.97;1.95;;;22.10;99.80;;;;;;4992591;28;20035;-64
2023/08/26 12:05:10;;;;;;;3.50;1.60;;;22.30;99.90;;;;;;4987141;28;20046;-64
2023/08/26 12:07:46;;;;;;;4.32;1.73;;;22.30;99.30;;;;;;4992748;28;20129;-64
2023/08/26 12:10:14;;;;;;;2.53;1.55;;;22.40;98.30;;;;;;4987264;28;20517;-64
2023/08/26 12:12:41;;;;;;;4.22;1.60;;;22.40;97.70;;;;;;4993931;28;20401;-64
2023/08/26 12:15:12;;;;;;;4.20;1.80;;;22.50;97.60;;;;;;4998862;28;20035;-64
2023/08/26 12:17:54;;;;;;;4.68;1.90;;;22.50;97.60;;;;;;4988475;28;20563;-64
2023/08/26 12:20:30;;;;;;;3.67;1.88;;;22.50;98.80;;;;;;4987885;28;20058;-64
2023/08/26 12:22:59;;;;;;;4.10;2.10;;;22.50;99.10;;;;;;5000010;28;20034;-64
2023/08/26 12:25:32;;;;;;;3.50;1.80;;;22.40;98.90;;;;;;5000441;28;20034;-64
2023/08/26 12:28:18;;;;;;;2.83;1.85;;;22.30;98.70;;;;;;4989479;28;20046;-64
2023/08/26 12:30:45;;;;;;;3.08;2.00;;;22.10;98.30;;;;;;4994914;28;20038;-64
2023/08/26 12:33:12;;;;;;;3.03;2.10;;;21.90;98.50;;;;;;5009093;28;20128;-64
2023/08/26 12:35:38;;;;;;;3.25;2.17;;;21.90;99.00;;;;;;4990294;28;20046;-64
2023/08/26 12:38:04;;;;;;;3.70;2.50;;;21.90;98.60;;;;;;5005166;28;20061;-64